createdAt,value
2022-11-03T00:02:09.785Z,98701.75
2022-11-03T00:05:30.099Z,98702.56
2022-11-03T00:08:32.321Z,98699.13
2022-11-03T00:11:34.394Z,98687.81
2022-11-03T00:14:35.742Z,98689.50
2022-11-03T00:17:37.128Z,98685.06
2022-11-03T00:20:38.507Z,98692.06
2022-11-03T00:23:40.606Z,98685.91
2022-11-03T00:26:41.988Z,98678.16
2022-11-03T00:29:43.307Z,98677.31
2022-11-03T00:32:44.677Z,98669.56
2022-11-03T00:35:46.044Z,98675.47
2022-11-03T00:38:47.425Z,98679.69
2022-11-03T00:41:48.777Z,98671.88
2022-11-03T00:44:50.171Z,98665.75
2022-11-03T00:48:10.972Z,98661.50
2022-11-03T00:51:13.215Z,98653.69
2022-11-03T00:54:14.551Z,98653.59
2022-11-03T00:57:15.888Z,98659.59
2022-11-03T01:00:17.286Z,98660.41
2022-11-03T01:03:18.629Z,98662.09
2022-11-03T01:06:38.895Z,98660.22
2022-11-03T01:09:41.064Z,98643.81
2022-11-03T01:12:42.379Z,98638.66
2022-11-03T01:15:43.708Z,98641.22
2022-11-03T01:18:45.057Z,98646.41
2022-11-03T01:21:46.393Z,98640.44
2022-11-03T01:24:47.721Z,98636.94
2022-11-03T01:27:49.055Z,98630.13
2022-11-03T01:30:50.397Z,98638.56
2022-11-03T01:33:53.021Z,98632.47
2022-11-03T01:36:54.409Z,98626.59
2022-11-03T01:39:55.859Z,98621.41
2022-11-03T01:43:13.809Z,98620.66
2022-11-03T01:46:24.667Z,98609.25
2022-11-03T01:49:33.794Z,98604.78
2022-11-03T01:52:42.901Z,98602.13
2022-11-03T01:55:44.231Z,98595.22
2022-11-03T01:58:46.799Z,98590.91
2022-11-03T02:01:48.179Z,98589.25
2022-11-03T02:04:49.554Z,98578.94
2022-11-03T02:07:56.241Z,98573.84
2022-11-03T02:10:58.315Z,98575.47
2022-11-03T02:13:59.658Z,98572.78
2022-11-03T02:17:02.249Z,98567.56
2022-11-03T02:20:07.807Z,98563.16
2022-11-03T02:23:26.437Z,98558.75
2022-11-03T02:26:27.827Z,98552.81
2022-11-03T02:29:29.143Z,98544.19
2022-11-03T02:32:40.178Z,98543.44
2022-11-03T02:35:56.937Z,98527.81
2022-11-03T02:38:59.249Z,98526.09
2022-11-03T02:42:00.591Z,98521.03
2022-11-03T02:45:02.836Z,98520.25
2022-11-03T02:48:04.419Z,98510.75
2022-11-03T02:51:05.780Z,98505.59
2022-11-03T02:54:08.791Z,98502.06
2022-11-03T02:57:12.990Z,98491.75
2022-11-03T03:00:14.460Z,98491.88
2022-11-03T03:03:22.717Z,98481.63
2022-11-03T03:06:29.058Z,98480.78
2022-11-03T03:09:41.801Z,98473.78
2022-11-03T03:12:43.630Z,98468.50
2022-11-03T03:15:50.390Z,98461.66
2022-11-03T03:19:03.418Z,98449.63
2022-11-03T03:22:08.591Z,98440.16
2022-11-03T03:25:17.877Z,98436.63
2022-11-03T03:28:26.604Z,98435.13
2022-11-03T03:31:27.948Z,98433.47
2022-11-03T03:34:35.341Z,98412.81
2022-11-03T03:37:37.489Z,98425.56
2022-11-03T03:40:39.133Z,98407.41
2022-11-03T03:43:40.448Z,98399.78
2022-11-03T03:46:42.701Z,98392.84
2022-11-03T03:49:44.070Z,98385.09
2022-11-03T03:52:45.403Z,98398.88
2022-11-03T03:55:47.463Z,98392.13
2022-11-03T03:58:48.865Z,98393.84
2022-11-03T04:01:50.283Z,98392.03
2022-11-03T04:04:51.731Z,98389.38
2022-11-03T04:07:53.107Z,98380.75
2022-11-03T04:11:13.342Z,98379.06
2022-11-03T04:14:33.453Z,98372.22
2022-11-03T04:18:00.748Z,98372.28
2022-11-03T04:21:20.878Z,98370.44
2022-11-03T04:24:22.236Z,98367.88
2022-11-03T04:27:27.631Z,98378.19
2022-11-03T04:30:29.018Z,98370.38
2022-11-03T04:33:30.362Z,98371.28
2022-11-03T04:36:31.682Z,98368.69
2022-11-03T04:39:33.063Z,98362.63
2022-11-03T04:42:34.514Z,98359.16
2022-11-03T04:45:36.026Z,98350.56
2022-11-03T04:48:37.523Z,98350.56
2022-11-03T04:51:38.871Z,98346.25
2022-11-03T04:54:40.246Z,98333.31
2022-11-03T04:57:41.603Z,98322.94
2022-11-03T05:00:43.009Z,98326.38
2022-11-03T05:03:44.788Z,98327.22
2022-11-03T05:06:50.783Z,98328.94
2022-11-03T05:09:52.681Z,98319.47
2022-11-03T05:12:54.104Z,98313.44
2022-11-03T05:15:59.424Z,98315.09
2022-11-03T05:19:00.798Z,98301.28
2022-11-03T05:22:02.730Z,98302.16
2022-11-03T05:25:10.635Z,98300.34
2022-11-03T05:28:22.158Z,98296.84
2022-11-03T05:31:27.772Z,98290.75
2022-11-03T05:34:35.987Z,98285.63
2022-11-03T05:37:37.311Z,98285.63
2022-11-03T05:40:38.676Z,98276.13
2022-11-03T05:43:40.061Z,98272.72
2022-11-03T05:46:41.400Z,98270.94
2022-11-03T05:49:42.769Z,98260.59
2022-11-03T05:52:44.438Z,98258.91
2022-11-03T05:55:45.828Z,98260.63
2022-11-03T05:58:47.143Z,98247.69
2022-11-03T06:01:48.586Z,98244.25
2022-11-03T06:04:50.091Z,98245.97
2022-11-03T06:07:52.910Z,98244.31
2022-11-03T06:10:55.256Z,98244.38
2022-11-03T06:13:57.079Z,98241.00
2022-11-03T06:16:59.896Z,98232.47
2022-11-03T06:20:01.318Z,98224.66
2022-11-03T06:23:02.705Z,98230.69
2022-11-03T06:26:04.136Z,98214.38
2022-11-03T06:29:05.466Z,98223.00
2022-11-03T06:32:08.970Z,98222.22
2022-11-03T06:35:10.336Z,98212.81
2022-11-03T06:38:13.066Z,98210.34
2022-11-03T06:41:19.480Z,98214.72
2022-11-03T06:44:24.997Z,98215.69
2022-11-03T06:47:26.887Z,98208.00
2022-11-03T06:50:29.934Z,98210.66
2022-11-03T06:53:31.928Z,98208.13
2022-11-03T06:56:35.253Z,98212.50
2022-11-03T06:59:36.606Z,98203.94
2022-11-03T07:02:38.140Z,98191.97
2022-11-03T07:05:39.672Z,98196.41
2022-11-03T07:09:07.401Z,98205.09
2022-11-03T07:12:09.013Z,98198.28
2022-11-03T07:15:16.979Z,98194.94
2022-11-03T07:18:22.701Z,98187.22
2022-11-03T07:21:24.053Z,98170.97
2022-11-03T07:24:32.176Z,98171.06
2022-11-03T07:27:35.333Z,98162.47
2022-11-03T07:30:36.682Z,98155.72
2022-11-03T07:33:38.049Z,98145.38
2022-11-03T07:36:39.423Z,98155.84
2022-11-03T07:39:40.831Z,98159.38
2022-11-03T07:42:42.160Z,98151.63
2022-11-03T07:45:50.342Z,98152.53
2022-11-03T07:49:02.751Z,98162.16
2022-11-03T07:52:05.131Z,98157.06
2022-11-03T07:55:09.242Z,98152.81
2022-11-03T07:58:20.844Z,98140.78
2022-11-03T08:01:26.463Z,98138.34
2022-11-03T08:04:28.595Z,98134.09
2022-11-03T08:07:30.060Z,98130.78
2022-11-03T08:10:31.570Z,98134.28
2022-11-03T08:13:32.997Z,98126.50
2022-11-03T08:16:34.386Z,98114.44
2022-11-03T08:19:35.755Z,98117.88
2022-11-03T08:22:37.099Z,98105.78
2022-11-03T08:25:38.427Z,98116.19
2022-11-03T08:28:39.761Z,98103.16
2022-11-03T08:31:41.329Z,98106.66
2022-11-03T08:34:42.664Z,98096.22
2022-11-03T08:37:44.007Z,98106.63
2022-11-03T08:40:45.391Z,98116.09
2022-11-03T08:43:46.722Z,98110.84
2022-11-03T08:46:48.085Z,98127.28
2022-11-03T08:49:49.414Z,98123.88
2022-11-03T08:52:50.718Z,98129.94
2022-11-03T08:55:52.536Z,98123.91
2022-11-03T08:58:53.923Z,98120.41
2022-11-03T09:01:55.453Z,98127.31
2022-11-03T09:04:56.903Z,98122.06
2022-11-03T09:11:19.826Z,98109.94
2022-11-03T09:14:21.168Z,98106.34
2022-11-03T09:17:22.519Z,98104.34
2022-11-03T09:20:23.855Z,98110.47
2022-11-03T09:23:25.203Z,98141.16
2022-11-03T09:26:26.823Z,98155.13
2022-11-03T09:29:36.310Z,98183.44
2022-11-03T09:32:47.096Z,98188.88
2022-11-03T09:35:48.436Z,98172.53
2022-11-03T09:38:49.866Z,98162.69
2022-11-03T09:41:58.314Z,98189.09
2022-11-03T09:45:00.630Z,98181.59
2022-11-03T09:48:02.495Z,98195.59
2022-11-03T09:51:04.011Z,98208.75
2022-11-03T09:54:05.450Z,98207.13
2022-11-03T09:57:09.861Z,98212.09
2022-11-03T10:00:18.635Z,98205.44
2022-11-03T10:03:20.853Z,98200.13
2022-11-03T10:06:22.259Z,98200.88
2022-11-03T10:09:23.785Z,98201.44
2022-11-03T10:12:25.298Z,98197.44
2022-11-03T10:15:26.685Z,98188.47
2022-11-03T10:18:28.028Z,98185.09
2022-11-03T10:21:30.008Z,98178.16
2022-11-03T10:24:31.533Z,98161.94
2022-11-03T10:27:32.877Z,98152.13
2022-11-03T10:30:45.318Z,98134.31
2022-11-03T10:33:55.677Z,98138.25
2022-11-03T10:37:09.968Z,98123.41
2022-11-03T10:40:46.808Z,98136.34
2022-11-03T10:43:43.198Z,98120.50
2022-11-03T10:46:55.858Z,98123.81
2022-11-03T10:49:57.619Z,98115.31
2022-11-03T10:52:58.970Z,98101.28
2022-11-03T10:56:00.348Z,98098.56
2022-11-03T10:59:01.739Z,98088.91
2022-11-03T11:02:03.193Z,98088.03
2022-11-03T11:05:09.935Z,98086.69
2022-11-03T11:08:11.574Z,98082.38
2022-11-03T11:11:15.051Z,98072.59
2022-11-03T11:14:42.866Z,98073.09
2022-11-03T11:17:45.462Z,98062.38
2022-11-03T11:20:46.897Z,98069.34
2022-11-03T11:23:48.480Z,98076.03
2022-11-03T11:26:50.822Z,98054.25
2022-11-03T11:29:52.275Z,98042.69
2022-11-03T11:32:59.061Z,98046.13
2022-11-03T11:36:00.360Z,98040.19
2022-11-03T11:39:02.043Z,98035.03
2022-11-03T11:42:07.280Z,98034.94
2022-11-03T11:45:08.735Z,98034.03
2022-11-03T11:48:18.943Z,98017.53
2022-11-03T11:51:20.742Z,98008.78
2022-11-03T11:54:22.090Z,98001.75
2022-11-03T11:57:23.440Z,97991.25
2022-11-03T12:00:25.851Z,97976.44
2022-11-03T12:03:31.682Z,97959.84
2022-11-03T12:06:34.139Z,97966.81
2022-11-03T12:09:35.569Z,97987.66
2022-11-03T12:12:36.964Z,97974.91
2022-11-03T12:15:48.050Z,97958.09
2022-11-03T12:18:50.622Z,97935.66
2022-11-03T12:21:52.220Z,97918.88
2022-11-03T12:24:54.368Z,97914.44
2022-11-03T12:27:55.692Z,97915.22
2022-11-03T12:30:57.091Z,97916.84
2022-11-03T12:33:58.955Z,97919.38
2022-11-03T12:37:00.271Z,97899.94
2022-11-03T12:40:01.705Z,97892.13
2022-11-03T12:43:03.054Z,97892.97
2022-11-03T12:46:04.430Z,97873.44
2022-11-03T12:49:05.808Z,97864.84
2022-11-03T12:52:08.666Z,97861.25
2022-11-03T12:55:10.167Z,97850.22
2022-11-03T12:58:11.490Z,97841.47
2022-11-03T13:01:13.389Z,97827.38
2022-11-03T13:04:14.861Z,97811.84
2022-11-03T13:07:19.201Z,97807.63
2022-11-03T13:10:25.567Z,97801.56
2022-11-03T13:13:27.135Z,97793.78
2022-11-03T13:16:28.454Z,97787.59
2022-11-03T13:19:29.831Z,97788.22
2022-11-03T13:22:31.146Z,97783.84
2022-11-03T13:25:32.520Z,97776.81
2022-11-03T13:28:33.925Z,97768.91
2022-11-03T13:31:35.762Z,97774.25
2022-11-03T13:34:37.171Z,97762.03
2022-11-03T13:37:38.534Z,97753.16
2022-11-03T13:40:56.404Z,97743.56
2022-11-03T13:43:58.696Z,97734.28
2022-11-03T13:47:00.124Z,97729.00
2022-11-03T13:50:14.343Z,97728.09
2022-11-03T14:00:01.991Z,97699.66
2022-11-03T14:06:27.489Z,97690.38
2022-11-03T14:09:28.977Z,97683.56
2022-11-03T14:12:34.657Z,97669.75
2022-11-03T14:15:36.060Z,97673.38
2022-11-03T14:18:37.397Z,97669.91
2022-11-03T14:21:42.580Z,97660.31
2022-11-03T14:24:44.428Z,97649.06
2022-11-03T14:27:46.631Z,97650.81
2022-11-03T14:30:48.000Z,97656.16
2022-11-03T14:33:49.369Z,97652.66
2022-11-03T14:36:50.733Z,97646.63
2022-11-03T14:39:52.173Z,97644.88
2022-11-03T14:42:53.516Z,97632.69
2022-11-03T14:45:54.892Z,97625.81
2022-11-03T14:48:56.280Z,97611.84
2022-11-03T14:51:57.752Z,97600.59
2022-11-03T14:54:59.148Z,97589.31
2022-11-03T14:58:00.490Z,97581.50
2022-11-03T15:01:01.956Z,97572.06
2022-11-03T15:04:03.340Z,97563.53
2022-11-03T15:07:04.740Z,97554.84
2022-11-03T15:10:06.152Z,97556.66
2022-11-03T15:13:07.741Z,97549.13
2022-11-03T15:16:09.251Z,97537.69
2022-11-03T15:19:10.627Z,97523.00
2022-11-03T15:22:12.066Z,97510.84
2022-11-03T15:25:13.520Z,97502.38
2022-11-03T15:28:14.866Z,97481.66
2022-11-03T15:31:16.246Z,97471.31
2022-11-03T15:34:18.117Z,97473.22
2022-11-03T15:37:19.456Z,97466.47
2022-11-03T15:40:20.839Z,97463.09
2022-11-03T15:43:22.192Z,97458.84
2022-11-03T15:46:23.527Z,97452.81
2022-11-03T15:49:24.919Z,97445.09
2022-11-03T15:52:26.240Z,97438.25
2022-11-03T15:55:27.652Z,97430.38
2022-11-03T15:58:32.966Z,97420.06
2022-11-03T16:01:35.487Z,97415.03
2022-11-03T16:04:36.950Z,97400.44
2022-11-03T16:07:38.267Z,97395.34
2022-11-03T16:10:44.148Z,97385.94
2022-11-03T16:13:49.399Z,97380.81
2022-11-03T16:16:50.821Z,97374.81
2022-11-03T16:19:52.154Z,97375.94
2022-11-03T16:22:53.519Z,97378.50
2022-11-03T16:25:54.868Z,97390.66
2022-11-03T16:28:56.550Z,97397.44
2022-11-03T16:31:57.924Z,97409.53
2022-11-03T16:34:59.409Z,97416.81
2022-11-03T16:38:00.871Z,97423.22
2022-11-03T16:41:02.223Z,97409.38
2022-11-03T16:44:03.645Z,97384.22
2022-11-03T16:47:05.378Z,97381.75
2022-11-03T16:50:06.987Z,97344.38
2022-11-03T16:53:08.752Z,97347.94
2022-11-03T16:56:10.460Z,97341.94
2022-11-03T16:59:11.868Z,97326.78
2022-11-03T17:02:16.421Z,97336.56
2022-11-03T17:05:19.815Z,97347.38
2022-11-03T17:11:42.565Z,97335.44
2022-11-03T17:14:43.930Z,97310.19
2022-11-03T17:21:08.559Z,97300.84
2022-11-03T17:24:11.288Z,97276.56
2022-11-03T17:27:16.539Z,97279.09
2022-11-03T17:30:21.676Z,97291.25
2022-11-03T17:33:23.368Z,97297.44
2022-11-03T17:36:24.878Z,97300.16
2022-11-03T17:39:28.425Z,97303.63
2022-11-03T17:42:30.104Z,97297.53
2022-11-03T17:45:31.691Z,97293.13
2022-11-03T17:48:33.294Z,97292.28
2022-11-03T17:51:34.978Z,97278.38
2022-11-03T17:54:36.397Z,97280.97
2022-11-03T17:57:37.908Z,97287.91
2022-11-03T18:00:39.611Z,97297.44
2022-11-03T18:03:41.320Z,97292.31
2022-11-03T18:06:42.785Z,97267.06
2022-11-03T18:09:44.348Z,97286.13
2022-11-03T18:13:05.591Z,97271.34
2022-11-03T18:16:13.366Z,97253.00
2022-11-03T18:19:15.426Z,97257.41
2022-11-03T18:22:16.878Z,97248.81
2022-11-03T18:25:19.116Z,97256.69
2022-11-03T18:28:20.643Z,97261.13
2022-11-03T18:31:23.024Z,97254.16
2022-11-03T18:34:25.074Z,97241.09
2022-11-03T18:37:26.494Z,97244.56
2022-11-03T18:40:28.390Z,97239.38
2022-11-03T18:43:29.948Z,97221.19
2022-11-03T18:46:31.450Z,97214.31
2022-11-03T18:49:33.916Z,97201.28
2022-11-03T18:52:36.992Z,97190.88
2022-11-03T18:55:38.519Z,97178.81
2022-11-03T18:58:40.096Z,97179.66
2022-11-03T19:01:41.648Z,97187.63
2022-11-03T19:04:43.174Z,97192.84
2022-11-03T19:07:45.373Z,97177.97
2022-11-03T19:10:47.487Z,97171.00
2022-11-03T19:13:48.820Z,97170.19
2022-11-03T19:17:17.182Z,97146.66
2022-11-03T19:20:14.501Z,97142.34
2022-11-03T19:23:16.096Z,97134.53
2022-11-03T19:26:24.877Z,97118.88
2022-11-03T19:29:27.608Z,97115.34
2022-11-03T19:32:29.944Z,97102.38
2022-11-03T19:35:31.763Z,97105.00
2022-11-03T19:38:34.399Z,97099.88
2022-11-03T19:41:54.339Z,97104.25
2022-11-03T19:44:56.144Z,97108.69
2022-11-03T19:48:22.429Z,97119.97
2022-11-03T19:51:20.329Z,97097.34
2022-11-03T19:54:21.698Z,97112.09
2022-11-03T19:57:23.239Z,97104.25
2022-11-03T20:00:24.567Z,97110.38
2022-11-03T20:03:25.952Z,97105.16
2022-11-03T20:06:27.358Z,97106.19
2022-11-03T20:12:34.989Z,97073.28
2022-11-03T20:15:36.331Z,97073.28
2022-11-03T20:18:38.257Z,97080.31
2022-11-03T20:21:41.003Z,97085.53
2022-11-03T20:24:43.166Z,97086.31
2022-11-03T20:27:44.639Z,97091.63
2022-11-03T20:30:46.191Z,97115.13
2022-11-03T20:33:47.696Z,97113.31
2022-11-03T20:36:49.172Z,97126.28
2022-11-03T20:39:50.620Z,97153.28
2022-11-03T20:42:53.998Z,97163.69
2022-11-03T20:45:55.420Z,97163.78
2022-11-03T20:48:57.387Z,97158.56
2022-11-03T20:51:59.148Z,97170.69
2022-11-03T20:55:00.596Z,97176.75
2022-11-03T20:58:01.991Z,97189.81
2022-11-03T21:01:03.885Z,97181.97
2022-11-03T21:04:09.633Z,97186.28
2022-11-03T21:07:13.902Z,97177.59
2022-11-03T21:10:20.359Z,97193.31
2022-11-03T21:13:22.216Z,97205.75
2022-11-03T21:16:42.721Z,97217.13
2022-11-03T21:19:59.475Z,97243.22
2022-11-03T21:23:00.984Z,97251.53
2022-11-03T21:26:02.523Z,97254.97
2022-11-03T21:29:04.007Z,97253.06
2022-11-03T21:32:05.625Z,97275.50
2022-11-03T21:35:07.276Z,97290.41
2022-11-03T21:38:09.169Z,97303.28
2022-11-03T21:41:29.726Z,97310.75
2022-11-03T21:44:31.292Z,97319.31
2022-11-03T21:47:32.684Z,97309.59
2022-11-03T21:50:34.166Z,97333.00
2022-11-03T21:53:35.584Z,97345.19
2022-11-03T21:56:37.083Z,97345.25
2022-11-03T21:59:38.457Z,97361.66
2022-11-03T22:02:39.802Z,97364.84
2022-11-03T22:05:41.241Z,97369.38
2022-11-03T22:08:43.589Z,97374.53
2022-11-03T22:11:44.994Z,97369.31
2022-11-03T22:15:05.162Z,97372.13
2022-11-03T22:18:07.151Z,97381.88
2022-11-03T22:21:27.602Z,97410.66
2022-11-03T22:24:47.631Z,97412.38
2022-11-03T22:27:48.978Z,97422.97
2022-11-03T22:31:09.390Z,97409.88
2022-11-03T22:34:29.772Z,97417.84
2022-11-03T22:40:50.322Z,97436.06
2022-11-03T22:44:11.947Z,97430.16
2022-11-03T22:47:15.942Z,97448.50
2022-11-03T22:50:20.047Z,97454.34
2022-11-03T22:53:40.135Z,97435.16
2022-11-03T22:56:41.455Z,97426.31
2022-11-03T22:59:42.841Z,97447.91
2022-11-03T23:02:44.696Z,97468.81
2022-11-03T23:05:46.045Z,97480.28
2022-11-03T23:08:47.738Z,97492.44
2022-11-03T23:11:49.059Z,97491.50
2022-11-03T23:15:09.059Z,97491.25
2022-11-03T23:18:29.200Z,97495.63
2022-11-03T23:21:30.673Z,97498.22
2022-11-03T23:24:50.976Z,97489.69
2022-11-03T23:27:52.566Z,97483.00
2022-11-03T23:30:53.908Z,97478.63
2022-11-03T23:33:55.333Z,97488.06
2022-11-03T23:36:58.008Z,97494.91
2022-11-03T23:39:59.354Z,97512.34
2022-11-03T23:43:00.720Z,97518.47
2022-11-03T23:46:20.684Z,97513.34
2022-11-03T23:49:22.013Z,97496.09
2022-11-03T23:52:23.326Z,97509.94
2022-11-03T23:55:24.652Z,97542.81
2022-11-03T23:58:25.974Z,97564.50
